sensor_id;sensor_type;location;lat;lon;timestamp;P1;durP1;ratioP1;P2;durP2;ratioP2
34876;SDS011;21086;44.780;17.194;2023-01-26T00:01:56;18.35;;;10.48;;
34876;SDS011;21086;44.780;17.194;2023-01-26T00:04:23;32.33;;;15.27;;
34876;SDS011;21086;44.780;17.194;2023-01-26T00:09:59;34.00;;;16.88;;
34876;SDS011;21086;44.780;17.194;2023-01-26T00:15:06;29.42;;;14.60;;
34876;SDS011;21086;44.780;17.194;2023-01-26T00:17:52;18.95;;;10.88;;
34876;SDS011;21086;44.780;17.194;2023-01-26T00:20:19;28.00;;;16.10;;
34876;SDS011;21086;44.780;17.194;2023-01-26T00:22:46;25.27;;;13.75;;
34876;SDS011;21086;44.780;17.194;2023-01-26T00:25:12;31.48;;;16.48;;
34876;SDS011;21086;44.780;17.194;2023-01-26T00:30:15;21.33;;;12.80;;
34876;SDS011;21086;44.780;17.194;2023-01-26T00:32:42;19.63;;;11.50;;
34876;SDS011;21086;44.780;17.194;2023-01-26T00:35:09;18.48;;;8.55;;
34876;SDS011;21086;44.780;17.194;2023-01-26T00:40:27;12.95;;;7.80;;
34876;SDS011;21086;44.780;17.194;2023-01-26T00:42:58;14.40;;;9.05;;
34876;SDS011;21086;44.780;17.194;2023-01-26T00:45:27;18.63;;;8.85;;
34876;SDS011;21086;44.780;17.194;2023-01-26T00:47:54;13.23;;;8.77;;
34876;SDS011;21086;44.780;17.194;2023-01-26T00:50:21;15.75;;;8.75;;
34876;SDS011;21086;44.780;17.194;2023-01-26T00:52:51;15.90;;;8.90;;
34876;SDS011;21086;44.780;17.194;2023-01-26T00:55:19;13.25;;;8.57;;
34876;SDS011;21086;44.780;17.194;2023-01-26T01:00:35;12.13;;;7.63;;
34876;SDS011;21086;44.780;17.194;2023-01-26T01:05:39;13.18;;;8.75;;
34876;SDS011;21086;44.780;17.194;2023-01-26T01:08:06;12.95;;;7.95;;
34876;SDS011;21086;44.780;17.194;2023-01-26T01:10:33;13.27;;;8.60;;
34876;SDS011;21086;44.780;17.194;2023-01-26T01:13:00;12.63;;;7.32;;
34876;SDS011;21086;44.780;17.194;2023-01-26T01:15:27;10.77;;;7.25;;
34876;SDS011;21086;44.780;17.194;2023-01-26T01:17:57;15.63;;;10.65;;
34876;SDS011;21086;44.780;17.194;2023-01-26T01:20:24;9.23;;;6.25;;
34876;SDS011;21086;44.780;17.194;2023-01-26T01:22:51;9.85;;;7.63;;
34876;SDS011;21086;44.780;17.194;2023-01-26T01:25:18;13.13;;;7.85;;
34876;SDS011;21086;44.780;17.194;2023-01-26T01:30:20;11.20;;;7.45;;
34876;SDS011;21086;44.780;17.194;2023-01-26T01:32:47;14.52;;;7.55;;
34876;SDS011;21086;44.780;17.194;2023-01-26T01:35:17;10.43;;;7.10;;
34876;SDS011;21086;44.780;17.194;2023-01-26T01:37:44;8.52;;;6.40;;
34876;SDS011;21086;44.780;17.194;2023-01-26T01:43:24;10.95;;;7.05;;
34876;SDS011;21086;44.780;17.194;2023-01-26T01:45:52;9.25;;;6.57;;
34876;SDS011;21086;44.780;17.194;2023-01-26T01:54:06;6.38;;;5.10;;
34876;SDS011;21086;44.780;17.194;2023-01-26T01:56:36;9.63;;;6.72;;
34876;SDS011;21086;44.780;17.194;2023-01-26T02:02:10;10.80;;;7.07;;
34876;SDS011;21086;44.780;17.194;2023-01-26T02:04:37;10.18;;;7.18;;
34876;SDS011;21086;44.780;17.194;2023-01-26T02:07:04;10.65;;;6.95;;
34876;SDS011;21086;44.780;17.194;2023-01-26T02:09:33;9.70;;;6.00;;
34876;SDS011;21086;44.780;17.194;2023-01-26T02:12:20;9.27;;;6.57;;
34876;SDS011;21086;44.780;17.194;2023-01-26T02:14:49;11.57;;;7.05;;
34876;SDS011;21086;44.780;17.194;2023-01-26T02:17:18;8.65;;;6.13;;
34876;SDS011;21086;44.780;17.194;2023-01-26T02:19:50;10.57;;;7.47;;
34876;SDS011;21086;44.780;17.194;2023-01-26T02:25:04;10.25;;;7.28;;
34876;SDS011;21086;44.780;17.194;2023-01-26T02:27:38;9.57;;;6.65;;
34876;SDS011;21086;44.780;17.194;2023-01-26T02:30:05;12.10;;;7.25;;
34876;SDS011;21086;44.780;17.194;2023-01-26T02:32:34;13.13;;;8.07;;
34876;SDS011;21086;44.780;17.194;2023-01-26T02:35:01;8.13;;;6.20;;
34876;SDS011;21086;44.780;17.194;2023-01-26T02:37:28;13.60;;;8.38;;
34876;SDS011;21086;44.780;17.194;2023-01-26T02:39:57;10.88;;;7.22;;
34876;SDS011;21086;44.780;17.194;2023-01-26T02:42:28;12.48;;;8.02;;
34876;SDS011;21086;44.780;17.194;2023-01-26T02:45:07;9.15;;;6.78;;
34876;SDS011;21086;44.780;17.194;2023-01-26T02:47:37;12.25;;;8.25;;
34876;SDS011;21086;44.780;17.194;2023-01-26T02:50:06;9.75;;;6.88;;
34876;SDS011;21086;44.780;17.194;2023-01-26T02:52:35;11.10;;;7.95;;
34876;SDS011;21086;44.780;17.194;2023-01-26T02:55:02;9.85;;;7.40;;
34876;SDS011;21086;44.780;17.194;2023-01-26T02:57:48;9.15;;;6.75;;
34876;SDS011;21086;44.780;17.194;2023-01-26T03:00:21;9.05;;;6.68;;
34876;SDS011;21086;44.780;17.194;2023-01-26T03:02:51;11.38;;;7.20;;
34876;SDS011;21086;44.780;17.194;2023-01-26T03:05:19;8.40;;;6.20;;
34876;SDS011;21086;44.780;17.194;2023-01-26T03:07:46;8.07;;;5.57;;
34876;SDS011;21086;44.780;17.194;2023-01-26T03:10:13;8.80;;;5.78;;
34876;SDS011;21086;44.780;17.194;2023-01-26T03:12:43;9.68;;;6.93;;
34876;SDS011;21086;44.780;17.194;2023-01-26T03:15:11;10.90;;;7.15;;
34876;SDS011;21086;44.780;17.194;2023-01-26T03:18:04;9.68;;;7.00;;
34876;SDS011;21086;44.780;17.194;2023-01-26T03:20:52;9.55;;;6.57;;
34876;SDS011;21086;44.780;17.194;2023-01-26T03:23:38;9.32;;;7.38;;
34876;SDS011;21086;44.780;17.194;2023-01-26T03:26:24;8.75;;;5.80;;
34876;SDS011;21086;44.780;17.194;2023-01-26T03:29:09;7.75;;;6.15;;
34876;SDS011;21086;44.780;17.194;2023-01-26T03:31:36;11.10;;;7.03;;
34876;SDS011;21086;44.780;17.194;2023-01-26T03:34:04;10.35;;;7.00;;
34876;SDS011;21086;44.780;17.194;2023-01-26T03:36:31;9.70;;;6.95;;
34876;SDS011;21086;44.780;17.194;2023-01-26T03:38:57;8.80;;;6.35;;
34876;SDS011;21086;44.780;17.194;2023-01-26T03:41:24;8.13;;;6.00;;
34876;SDS011;21086;44.780;17.194;2023-01-26T03:44:10;7.28;;;5.43;;
34876;SDS011;21086;44.780;17.194;2023-01-26T03:46:56;9.82;;;6.88;;
34876;SDS011;21086;44.780;17.194;2023-01-26T03:49:41;8.18;;;6.25;;
34876;SDS011;21086;44.780;17.194;2023-01-26T03:52:27;9.65;;;7.45;;
34876;SDS011;21086;44.780;17.194;2023-01-26T03:55:15;10.05;;;7.72;;
34876;SDS011;21086;44.780;17.194;2023-01-26T03:58:01;10.70;;;7.28;;
34876;SDS011;21086;44.780;17.194;2023-01-26T04:00:28;10.30;;;7.70;;
34876;SDS011;21086;44.780;17.194;2023-01-26T04:02:55;11.43;;;8.10;;
34876;SDS011;21086;44.780;17.194;2023-01-26T04:05:41;9.75;;;7.50;;
34876;SDS011;21086;44.780;17.194;2023-01-26T04:08:42;7.22;;;5.53;;
34876;SDS011;21086;44.780;17.194;2023-01-26T04:11:10;8.90;;;6.53;;
34876;SDS011;21086;44.780;17.194;2023-01-26T04:13:36;10.45;;;7.10;;
34876;SDS011;21086;44.780;17.194;2023-01-26T04:16:22;10.90;;;7.00;;
34876;SDS011;21086;44.780;17.194;2023-01-26T04:19:08;8.90;;;7.00;;
34876;SDS011;21086;44.780;17.194;2023-01-26T04:21:54;9.77;;;7.32;;
34876;SDS011;21086;44.780;17.194;2023-01-26T04:24:22;8.52;;;6.45;;
34876;SDS011;21086;44.780;17.194;2023-01-26T04:26:49;10.40;;;7.80;;
34876;SDS011;21086;44.780;17.194;2023-01-26T04:29:17;10.90;;;8.48;;
34876;SDS011;21086;44.780;17.194;2023-01-26T04:31:43;13.43;;;8.50;;
34876;SDS011;21086;44.780;17.194;2023-01-26T04:34:12;9.30;;;7.07;;
34876;SDS011;21086;44.780;17.194;2023-01-26T04:36:41;11.32;;;8.57;;
34876;SDS011;21086;44.780;17.194;2023-01-26T04:39:08;9.85;;;7.40;;
34876;SDS011;21086;44.780;17.194;2023-01-26T04:41:36;8.88;;;6.78;;
34876;SDS011;21086;44.780;17.194;2023-01-26T04:44:03;10.55;;;7.68;;
34876;SDS011;21086;44.780;17.194;2023-01-26T04:46:29;9.63;;;7.25;;
34876;SDS011;21086;44.780;17.194;2023-01-26T04:48:58;10.50;;;8.00;;
34876;SDS011;21086;44.780;17.194;2023-01-26T04:51:25;9.70;;;7.32;;
34876;SDS011;21086;44.780;17.194;2023-01-26T04:56:38;10.73;;;7.20;;
34876;SDS011;21086;44.780;17.194;2023-01-26T04:59:06;10.75;;;7.65;;
34876;SDS011;21086;44.780;17.194;2023-01-26T05:01:34;10.98;;;7.93;;
34876;SDS011;21086;44.780;17.194;2023-01-26T05:04:03;12.95;;;8.00;;
34876;SDS011;21086;44.780;17.194;2023-01-26T05:06:30;9.45;;;7.20;;
34876;SDS011;21086;44.780;17.194;2023-01-26T05:08:57;8.25;;;6.40;;
34876;SDS011;21086;44.780;17.194;2023-01-26T05:11:25;10.88;;;6.75;;
34876;SDS011;21086;44.780;17.194;2023-01-26T05:13:52;13.50;;;7.97;;
34876;SDS011;21086;44.780;17.194;2023-01-26T05:16:19;13.00;;;6.88;;
34876;SDS011;21086;44.780;17.194;2023-01-26T05:18:46;11.25;;;7.88;;
34876;SDS011;21086;44.780;17.194;2023-01-26T05:21:13;11.02;;;8.00;;
34876;SDS011;21086;44.780;17.194;2023-01-26T05:23:41;9.85;;;7.25;;
34876;SDS011;21086;44.780;17.194;2023-01-26T05:26:08;10.23;;;7.03;;
34876;SDS011;21086;44.780;17.194;2023-01-26T05:28:35;9.63;;;7.18;;
34876;SDS011;21086;44.780;17.194;2023-01-26T05:31:02;9.55;;;6.95;;
34876;SDS011;21086;44.780;17.194;2023-01-26T05:33:29;10.77;;;7.38;;
34876;SDS011;21086;44.780;17.194;2023-01-26T05:35:56;11.18;;;8.35;;
34876;SDS011;21086;44.780;17.194;2023-01-26T05:38:23;10.73;;;8.13;;
34876;SDS011;21086;44.780;17.194;2023-01-26T05:40:51;11.15;;;8.50;;
34876;SDS011;21086;44.780;17.194;2023-01-26T05:43:19;12.32;;;8.95;;
34876;SDS011;21086;44.780;17.194;2023-01-26T05:45:46;11.13;;;7.82;;
34876;SDS011;21086;44.780;17.194;2023-01-26T05:48:13;11.48;;;8.48;;
34876;SDS011;21086;44.780;17.194;2023-01-26T05:50:40;11.45;;;7.07;;
34876;SDS011;21086;44.780;17.194;2023-01-26T05:53:07;9.40;;;7.25;;
34876;SDS011;21086;44.780;17.194;2023-01-26T05:55:34;7.88;;;6.28;;
34876;SDS011;21086;44.780;17.194;2023-01-26T05:58:01;10.15;;;7.22;;
34876;SDS011;21086;44.780;17.194;2023-01-26T06:00:28;9.05;;;7.05;;
34876;SDS011;21086;44.780;17.194;2023-01-26T06:02:55;8.85;;;6.45;;
34876;SDS011;21086;44.780;17.194;2023-01-26T06:05:22;10.85;;;7.85;;
34876;SDS011;21086;44.780;17.194;2023-01-26T06:07:49;10.60;;;7.47;;
34876;SDS011;21086;44.780;17.194;2023-01-26T06:10:16;14.05;;;8.98;;
34876;SDS011;21086;44.780;17.194;2023-01-26T06:12:43;12.18;;;8.68;;
34876;SDS011;21086;44.780;17.194;2023-01-26T06:15:10;12.93;;;8.75;;
34876;SDS011;21086;44.780;17.194;2023-01-26T06:17:38;14.63;;;10.07;;
34876;SDS011;21086;44.780;17.194;2023-01-26T06:20:06;13.77;;;9.13;;
34876;SDS011;21086;44.780;17.194;2023-01-26T06:22:33;10.90;;;8.02;;
34876;SDS011;21086;44.780;17.194;2023-01-26T06:25:00;9.85;;;7.38;;
34876;SDS011;21086;44.780;17.194;2023-01-26T06:27:27;7.90;;;6.60;;
34876;SDS011;21086;44.780;17.194;2023-01-26T06:29:54;10.07;;;7.82;;
34876;SDS011;21086;44.780;17.194;2023-01-26T06:32:21;12.40;;;8.63;;
34876;SDS011;21086;44.780;17.194;2023-01-26T06:34:48;11.23;;;7.97;;
34876;SDS011;21086;44.780;17.194;2023-01-26T06:37:18;11.45;;;8.68;;
34876;SDS011;21086;44.780;17.194;2023-01-26T06:39:45;9.77;;;7.63;;
34876;SDS011;21086;44.780;17.194;2023-01-26T06:42:12;11.00;;;8.00;;
34876;SDS011;21086;44.780;17.194;2023-01-26T06:44:39;11.52;;;8.25;;
34876;SDS011;21086;44.780;17.194;2023-01-26T06:47:07;9.20;;;6.97;;
34876;SDS011;21086;44.780;17.194;2023-01-26T06:49:34;12.80;;;9.18;;
34876;SDS011;21086;44.780;17.194;2023-01-26T06:52:18;12.88;;;8.90;;
34876;SDS011;21086;44.780;17.194;2023-01-26T06:54:48;10.88;;;8.23;;
34876;SDS011;21086;44.780;17.194;2023-01-26T06:57:16;7.85;;;5.80;;
34876;SDS011;21086;44.780;17.194;2023-01-26T06:59:43;10.32;;;6.90;;
34876;SDS011;21086;44.780;17.194;2023-01-26T07:02:14;13.13;;;9.93;;
34876;SDS011;21086;44.780;17.194;2023-01-26T07:04:44;12.00;;;8.52;;
34876;SDS011;21086;44.780;17.194;2023-01-26T07:07:12;11.48;;;8.73;;
34876;SDS011;21086;44.780;17.194;2023-01-26T07:09:39;11.30;;;8.38;;
34876;SDS011;21086;44.780;17.194;2023-01-26T07:12:07;10.23;;;7.32;;
34876;SDS011;21086;44.780;17.194;2023-01-26T07:14:34;14.63;;;10.70;;
34876;SDS011;21086;44.780;17.194;2023-01-26T07:17:01;11.68;;;9.77;;
34876;SDS011;21086;44.780;17.194;2023-01-26T07:19:29;18.95;;;14.73;;
34876;SDS011;21086;44.780;17.194;2023-01-26T07:21:58;11.55;;;8.45;;
34876;SDS011;21086;44.780;17.194;2023-01-26T07:24:26;12.10;;;8.85;;
34876;SDS011;21086;44.780;17.194;2023-01-26T07:26:54;12.82;;;9.75;;
34876;SDS011;21086;44.780;17.194;2023-01-26T07:29:22;10.95;;;9.07;;
34876;SDS011;21086;44.780;17.194;2023-01-26T07:31:49;9.93;;;7.55;;
34876;SDS011;21086;44.780;17.194;2023-01-26T07:34:16;15.18;;;11.20;;
34876;SDS011;21086;44.780;17.194;2023-01-26T07:36:43;15.77;;;10.93;;
34876;SDS011;21086;44.780;17.194;2023-01-26T07:39:11;13.05;;;9.95;;
34876;SDS011;21086;44.780;17.194;2023-01-26T07:41:38;17.67;;;13.55;;
34876;SDS011;21086;44.780;17.194;2023-01-26T07:44:07;26.08;;;17.77;;
34876;SDS011;21086;44.780;17.194;2023-01-26T07:46:35;23.92;;;18.52;;
34876;SDS011;21086;44.780;17.194;2023-01-26T07:49:02;18.92;;;13.15;;
34876;SDS011;21086;44.780;17.194;2023-01-26T07:51:29;10.95;;;8.70;;
34876;SDS011;21086;44.780;17.194;2023-01-26T07:53:56;14.43;;;9.70;;
34876;SDS011;21086;44.780;17.194;2023-01-26T07:56:24;12.70;;;10.13;;
34876;SDS011;21086;44.780;17.194;2023-01-26T07:58:51;17.17;;;12.07;;
34876;SDS011;21086;44.780;17.194;2023-01-26T08:01:20;15.73;;;12.00;;
34876;SDS011;21086;44.780;17.194;2023-01-26T08:03:51;14.23;;;10.27;;
34876;SDS011;21086;44.780;17.194;2023-01-26T08:06:19;15.25;;;11.57;;
34876;SDS011;21086;44.780;17.194;2023-01-26T08:08:47;14.38;;;10.93;;
34876;SDS011;21086;44.780;17.194;2023-01-26T08:11:17;13.82;;;10.48;;
34876;SDS011;21086;44.780;17.194;2023-01-26T08:13:44;17.50;;;13.85;;
34876;SDS011;21086;44.780;17.194;2023-01-26T08:16:14;16.05;;;12.38;;
34876;SDS011;21086;44.780;17.194;2023-01-26T08:18:43;15.60;;;11.45;;
34876;SDS011;21086;44.780;17.194;2023-01-26T08:21:15;14.50;;;11.55;;
34876;SDS011;21086;44.780;17.194;2023-01-26T08:23:48;14.98;;;11.60;;
34876;SDS011;21086;44.780;17.194;2023-01-26T08:26:17;13.98;;;10.25;;
34876;SDS011;21086;44.780;17.194;2023-01-26T08:28:48;12.45;;;9.18;;
34876;SDS011;21086;44.780;17.194;2023-01-26T08:31:16;12.52;;;10.05;;
34876;SDS011;21086;44.780;17.194;2023-01-26T08:33:46;14.82;;;11.00;;
34876;SDS011;21086;44.780;17.194;2023-01-26T08:36:16;20.15;;;16.05;;
34876;SDS011;21086;44.780;17.194;2023-01-26T08:38:47;11.85;;;9.50;;
34876;SDS011;21086;44.780;17.194;2023-01-26T08:41:14;13.75;;;10.45;;
34876;SDS011;21086;44.780;17.194;2023-01-26T08:43:42;14.05;;;11.00;;
34876;SDS011;21086;44.780;17.194;2023-01-26T08:46:09;12.85;;;9.65;;
34876;SDS011;21086;44.780;17.194;2023-01-26T08:48:36;13.90;;;10.05;;
34876;SDS011;21086;44.780;17.194;2023-01-26T08:51:04;15.90;;;11.10;;
34876;SDS011;21086;44.780;17.194;2023-01-26T08:53:33;12.60;;;9.77;;
34876;SDS011;21086;44.780;17.194;2023-01-26T08:56:02;15.30;;;11.55;;
34876;SDS011;21086;44.780;17.194;2023-01-26T08:58:31;13.45;;;9.48;;
34876;SDS011;21086;44.780;17.194;2023-01-26T09:01:02;15.75;;;11.43;;
34876;SDS011;21086;44.780;17.194;2023-01-26T09:03:29;12.77;;;9.68;;
34876;SDS011;21086;44.780;17.194;2023-01-26T09:05:59;16.00;;;10.32;;
34876;SDS011;21086;44.780;17.194;2023-01-26T09:08:27;13.50;;;9.93;;
34876;SDS011;21086;44.780;17.194;2023-01-26T09:10:54;13.23;;;10.40;;
34876;SDS011;21086;44.780;17.194;2023-01-26T09:13:20;13.95;;;9.98;;
34876;SDS011;21086;44.780;17.194;2023-01-26T09:15:48;11.05;;;8.98;;
34876;SDS011;21086;44.780;17.194;2023-01-26T09:18:15;12.85;;;10.32;;
34876;SDS011;21086;44.780;17.194;2023-01-26T09:20:43;15.32;;;11.68;;
34876;SDS011;21086;44.780;17.194;2023-01-26T09:23:10;15.20;;;12.52;;
34876;SDS011;21086;44.780;17.194;2023-01-26T09:25:38;15.07;;;11.95;;
34876;SDS011;21086;44.780;17.194;2023-01-26T09:28:05;14.77;;;11.07;;
34876;SDS011;21086;44.780;17.194;2023-01-26T09:30:32;17.83;;;12.85;;
34876;SDS011;21086;44.780;17.194;2023-01-26T09:33:00;17.30;;;13.02;;
34876;SDS011;21086;44.780;17.194;2023-01-26T09:35:28;16.20;;;12.32;;
34876;SDS011;21086;44.780;17.194;2023-01-26T09:37:56;13.77;;;10.77;;
34876;SDS011;21086;44.780;17.194;2023-01-26T09:45:36;17.38;;;13.00;;
34876;SDS011;21086;44.780;17.194;2023-01-26T09:48:22;15.23;;;12.40;;
34876;SDS011;21086;44.780;17.194;2023-01-26T09:51:23;16.15;;;11.60;;
34876;SDS011;21086;44.780;17.194;2023-01-26T09:53:58;16.17;;;11.38;;
34876;SDS011;21086;44.780;17.194;2023-01-26T09:56:38;13.73;;;11.43;;
34876;SDS011;21086;44.780;17.194;2023-01-26T10:06:59;37.72;;;25.15;;
34876;SDS011;21086;44.780;17.194;2023-01-26T10:09:31;17.90;;;13.43;;
34876;SDS011;21086;44.780;17.194;2023-01-26T10:12:35;15.88;;;12.20;;
34876;SDS011;21086;44.780;17.194;2023-01-26T10:17:25;13.63;;;9.98;;
34876;SDS011;21086;44.780;17.194;2023-01-26T10:19:59;12.55;;;9.45;;
34876;SDS011;21086;44.780;17.194;2023-01-26T10:22:53;12.85;;;8.32;;
34876;SDS011;21086;44.780;17.194;2023-01-26T10:25:33;11.35;;;8.93;;
34876;SDS011;21086;44.780;17.194;2023-01-26T10:30:47;10.88;;;8.35;;
34876;SDS011;21086;44.780;17.194;2023-01-26T10:33:18;10.73;;;7.80;;
34876;SDS011;21086;44.780;17.194;2023-01-26T10:35:50;13.80;;;10.23;;
34876;SDS011;21086;44.780;17.194;2023-01-26T10:38:27;12.15;;;8.45;;
34876;SDS011;21086;44.780;17.194;2023-01-26T10:43:40;10.00;;;6.90;;
34876;SDS011;21086;44.780;17.194;2023-01-26T10:49:00;12.82;;;8.80;;
34876;SDS011;21086;44.780;17.194;2023-01-26T10:51:30;11.10;;;7.32;;
34876;SDS011;21086;44.780;17.194;2023-01-26T11:04:37;9.48;;;6.85;;
34876;SDS011;21086;44.780;17.194;2023-01-26T11:07:24;9.63;;;7.13;;
34876;SDS011;21086;44.780;17.194;2023-01-26T11:09:53;12.02;;;8.60;;
34876;SDS011;21086;44.780;17.194;2023-01-26T11:12:21;10.43;;;8.20;;
34876;SDS011;21086;44.780;17.194;2023-01-26T11:15:01;10.88;;;8.27;;
34876;SDS011;21086;44.780;17.194;2023-01-26T11:17:36;13.82;;;7.07;;
34876;SDS011;21086;44.780;17.194;2023-01-26T11:23:12;7.90;;;5.97;;
34876;SDS011;21086;44.780;17.194;2023-01-26T11:29:07;11.00;;;8.23;;
34876;SDS011;21086;44.780;17.194;2023-01-26T11:31:48;9.52;;;7.50;;
34876;SDS011;21086;44.780;17.194;2023-01-26T11:43:48;9.82;;;7.65;;
34876;SDS011;21086;44.780;17.194;2023-01-26T11:47:09;11.50;;;8.23;;
34876;SDS011;21086;44.780;17.194;2023-01-26T12:00:47;15.40;;;10.82;;
34876;SDS011;21086;44.780;17.194;2023-01-26T12:06:13;13.07;;;9.80;;
34876;SDS011;21086;44.780;17.194;2023-01-26T12:08:59;13.57;;;10.13;;
34876;SDS011;21086;44.780;17.194;2023-01-26T12:11:32;14.18;;;10.73;;
34876;SDS011;21086;44.780;17.194;2023-01-26T12:14:06;12.98;;;9.05;;
34876;SDS011;21086;44.780;17.194;2023-01-26T12:17:01;14.38;;;9.90;;
34876;SDS011;21086;44.780;17.194;2023-01-26T12:22:38;11.63;;;8.70;;
34876;SDS011;21086;44.780;17.194;2023-01-26T12:28:01;16.52;;;12.20;;
34876;SDS011;21086;44.780;17.194;2023-01-26T12:33:26;14.60;;;11.10;;
34876;SDS011;21086;44.780;17.194;2023-01-26T12:41:17;16.45;;;11.63;;
34876;SDS011;21086;44.780;17.194;2023-01-26T12:46:36;19.10;;;13.55;;
34876;SDS011;21086;44.780;17.194;2023-01-26T12:49:12;16.60;;;12.15;;
34876;SDS011;21086;44.780;17.194;2023-01-26T12:51:44;12.35;;;9.55;;
34876;SDS011;21086;44.780;17.194;2023-01-26T12:54:20;13.35;;;10.10;;
34876;SDS011;21086;44.780;17.194;2023-01-26T12:57:19;14.13;;;9.40;;
34876;SDS011;21086;44.780;17.194;2023-01-26T12:59:51;17.23;;;11.98;;
34876;SDS011;21086;44.780;17.194;2023-01-26T13:02:21;17.20;;;11.32;;
34876;SDS011;21086;44.780;17.194;2023-01-26T13:04:59;15.02;;;10.55;;
34876;SDS011;21086;44.780;17.194;2023-01-26T13:15:29;10.43;;;8.75;;
34876;SDS011;21086;44.780;17.194;2023-01-26T13:17:58;13.90;;;10.20;;
34876;SDS011;21086;44.780;17.194;2023-01-26T13:28:49;18.80;;;13.38;;
34876;SDS011;21086;44.780;17.194;2023-01-26T13:31:42;13.40;;;10.40;;
34876;SDS011;21086;44.780;17.194;2023-01-26T13:34:09;19.55;;;14.30;;
34876;SDS011;21086;44.780;17.194;2023-01-26T13:36:40;17.67;;;13.18;;
34876;SDS011;21086;44.780;17.194;2023-01-26T13:39:11;18.05;;;12.35;;
34876;SDS011;21086;44.780;17.194;2023-01-26T13:41:54;19.45;;;13.48;;
34876;SDS011;21086;44.780;17.194;2023-01-26T13:44:32;22.25;;;16.00;;
34876;SDS011;21086;44.780;17.194;2023-01-26T13:50:19;15.77;;;11.98;;
34876;SDS011;21086;44.780;17.194;2023-01-26T13:52:48;16.02;;;13.32;;
34876;SDS011;21086;44.780;17.194;2023-01-26T13:55:20;17.60;;;13.88;;
34876;SDS011;21086;44.780;17.194;2023-01-26T14:00:38;14.68;;;12.77;;
34876;SDS011;21086;44.780;17.194;2023-01-26T14:03:17;20.35;;;14.23;;
34876;SDS011;21086;44.780;17.194;2023-01-26T14:05:58;16.65;;;12.55;;
34876;SDS011;21086;44.780;17.194;2023-01-26T14:08:27;15.20;;;11.63;;
34876;SDS011;21086;44.780;17.194;2023-01-26T14:10:56;14.10;;;9.27;;
34876;SDS011;21086;44.780;17.194;2023-01-26T14:15:59;12.20;;;9.45;;
34876;SDS011;21086;44.780;17.194;2023-01-26T14:18:30;16.38;;;12.02;;
34876;SDS011;21086;44.780;17.194;2023-01-26T14:21:01;15.40;;;11.68;;
34876;SDS011;21086;44.780;17.194;2023-01-26T14:23:34;13.15;;;10.52;;
34876;SDS011;21086;44.780;17.194;2023-01-26T14:26:03;16.98;;;12.32;;
34876;SDS011;21086;44.780;17.194;2023-01-26T14:28:45;17.63;;;12.60;;
34876;SDS011;21086;44.780;17.194;2023-01-26T14:31:19;18.08;;;12.00;;
34876;SDS011;21086;44.780;17.194;2023-01-26T14:33:50;19.17;;;14.23;;
34876;SDS011;21086;44.780;17.194;2023-01-26T14:36:21;19.63;;;13.35;;
34876;SDS011;21086;44.780;17.194;2023-01-26T14:38:49;14.32;;;10.93;;
34876;SDS011;21086;44.780;17.194;2023-01-26T14:41:27;15.98;;;12.40;;
34876;SDS011;21086;44.780;17.194;2023-01-26T14:43:57;20.63;;;13.75;;
34876;SDS011;21086;44.780;17.194;2023-01-26T14:46:36;18.67;;;14.05;;
34876;SDS011;21086;44.780;17.194;2023-01-26T14:49:13;16.05;;;10.45;;
34876;SDS011;21086;44.780;17.194;2023-01-26T14:51:45;13.52;;;9.85;;
34876;SDS011;21086;44.780;17.194;2023-01-26T14:54:21;14.93;;;11.27;;
34876;SDS011;21086;44.780;17.194;2023-01-26T14:56:56;13.50;;;10.40;;
34876;SDS011;21086;44.780;17.194;2023-01-26T14:59:32;11.80;;;8.75;;
34876;SDS011;21086;44.780;17.194;2023-01-26T15:02:12;12.98;;;9.60;;
34876;SDS011;21086;44.780;17.194;2023-01-26T15:04:50;11.32;;;8.23;;
34876;SDS011;21086;44.780;17.194;2023-01-26T15:07:32;11.55;;;8.93;;
34876;SDS011;21086;44.780;17.194;2023-01-26T15:10:24;11.68;;;8.90;;
34876;SDS011;21086;44.780;17.194;2023-01-26T15:15:28;11.88;;;8.25;;
34876;SDS011;21086;44.780;17.194;2023-01-26T15:20:40;9.75;;;6.88;;
34876;SDS011;21086;44.780;17.194;2023-01-26T15:23:27;13.93;;;10.27;;
34876;SDS011;21086;44.780;17.194;2023-01-26T15:26:07;13.23;;;9.52;;
34876;SDS011;21086;44.780;17.194;2023-01-26T15:28:34;9.77;;;7.20;;
34876;SDS011;21086;44.780;17.194;2023-01-26T15:31:02;13.02;;;9.32;;
34876;SDS011;21086;44.780;17.194;2023-01-26T15:33:36;11.23;;;8.60;;
34876;SDS011;21086;44.780;17.194;2023-01-26T15:36:22;9.55;;;7.43;;
34876;SDS011;21086;44.780;17.194;2023-01-26T15:38:57;12.32;;;8.98;;
34876;SDS011;21086;44.780;17.194;2023-01-26T15:41:42;11.95;;;8.88;;
34876;SDS011;21086;44.780;17.194;2023-01-26T15:44:29;11.30;;;8.23;;
34876;SDS011;21086;44.780;17.194;2023-01-26T15:46:56;11.90;;;8.75;;
34876;SDS011;21086;44.780;17.194;2023-01-26T15:49:24;11.25;;;8.93;;
34876;SDS011;21086;44.780;17.194;2023-01-26T15:51:51;15.73;;;12.38;;
34876;SDS011;21086;44.780;17.194;2023-01-26T15:54:19;11.68;;;8.38;;
34876;SDS011;21086;44.780;17.194;2023-01-26T15:56:46;12.70;;;10.25;;
34876;SDS011;21086;44.780;17.194;2023-01-26T15:59:13;13.43;;;9.50;;
34876;SDS011;21086;44.780;17.194;2023-01-26T16:01:40;16.20;;;8.70;;
34876;SDS011;21086;44.780;17.194;2023-01-26T16:04:11;14.57;;;10.15;;
34876;SDS011;21086;44.780;17.194;2023-01-26T16:06:39;21.15;;;11.38;;
34876;SDS011;21086;44.780;17.194;2023-01-26T16:09:05;17.52;;;10.98;;
34876;SDS011;21086;44.780;17.194;2023-01-26T16:11:34;13.27;;;8.82;;
34876;SDS011;21086;44.780;17.194;2023-01-26T16:14:03;22.80;;;12.38;;
34876;SDS011;21086;44.780;17.194;2023-01-26T16:16:30;12.35;;;8.30;;
34876;SDS011;21086;44.780;17.194;2023-01-26T16:18:58;19.08;;;10.57;;
34876;SDS011;21086;44.780;17.194;2023-01-26T16:21:26;17.75;;;10.43;;
34876;SDS011;21086;44.780;17.194;2023-01-26T16:23:56;14.48;;;9.43;;
34876;SDS011;21086;44.780;17.194;2023-01-26T16:26:24;11.70;;;8.32;;
34876;SDS011;21086;44.780;17.194;2023-01-26T16:28:52;12.77;;;7.90;;
34876;SDS011;21086;44.780;17.194;2023-01-26T16:31:28;11.35;;;7.35;;
34876;SDS011;21086;44.780;17.194;2023-01-26T16:33:57;14.65;;;8.80;;
34876;SDS011;21086;44.780;17.194;2023-01-26T16:36:26;14.35;;;9.48;;
34876;SDS011;21086;44.780;17.194;2023-01-26T16:38:53;21.17;;;12.30;;
34876;SDS011;21086;44.780;17.194;2023-01-26T16:41:25;20.15;;;13.32;;
34876;SDS011;21086;44.780;17.194;2023-01-26T16:43:57;17.90;;;13.63;;
34876;SDS011;21086;44.780;17.194;2023-01-26T16:46:26;19.23;;;14.07;;
34876;SDS011;21086;44.780;17.194;2023-01-26T16:48:54;21.10;;;15.10;;
34876;SDS011;21086;44.780;17.194;2023-01-26T16:53:53;21.70;;;15.13;;
34876;SDS011;21086;44.780;17.194;2023-01-26T16:56:21;19.83;;;13.82;;
34876;SDS011;21086;44.780;17.194;2023-01-26T16:58:49;14.55;;;10.52;;
34876;SDS011;21086;44.780;17.194;2023-01-26T17:01:20;16.15;;;12.45;;
34876;SDS011;21086;44.780;17.194;2023-01-26T17:03:50;18.92;;;12.57;;
34876;SDS011;21086;44.780;17.194;2023-01-26T17:06:18;14.98;;;11.65;;
34876;SDS011;21086;44.780;17.194;2023-01-26T17:08:46;18.17;;;13.52;;
34876;SDS011;21086;44.780;17.194;2023-01-26T17:11:23;18.00;;;12.90;;
34876;SDS011;21086;44.780;17.194;2023-01-26T17:13:54;15.55;;;12.25;;